Wetterdaten: Woche 27.12.10 - 02.01.11 (KW52)
Datum Zeit Temp. A. Feuchte A. Luftdruck Regen Wind Richtung Taupunkt Windchill Windben
27.12.2010 00:00 -3,5 C 63 % 1025,1 hPa 0,0 l/m 6,4 km/h NW -9,6 C -4,4 C 18,5 km/h
27.12.2010 01:00 -3,7 C 66 % 1024,8 hPa 0,0 l/m 7,2 km/h W-NW -9,2 C -4,5 C 22,5 km/h
27.12.2010 02:00 -3,7 C 69 % 1024,6 hPa 0,0 l/m 6,4 km/h W-NW -8,6 C -3,6 C 20,1 km/h
27.12.2010 03:00 -3,6 C 71 % 1024,6 hPa 0,0 l/m 6,4 km/h NW -8,2 C -3,5 C 21,7 km/h
27.12.2010 04:00 -3,8 C 73 % 1024,6 hPa 0,0 l/m 4,8 km/h NW -8,0 C -3,8 C 16,1 km/h
27.12.2010 05:00 -4,0 C 74 % 1024,7 hPa 0,0 l/m 3,2 km/h NW -8,0 C -4,0 C 11,3 km/h
27.12.2010 06:00 -3,8 C 75 % 1024,6 hPa 0,0 l/m 5,6 km/h NW -7,6 C -3,8 C 20,9 km/h
27.12.2010 07:00 -3,7 C 78 % 1024,6 hPa 0,0 l/m 7,2 km/h NW -7,0 C -4,6 C 24,1 km/h
27.12.2010 08:00 -3,5 C 79 % 1024,6 hPa 0,0 l/m 8,1 km/h NW -6,7 C -5,3 C 29,8 km/h
27.12.2010 09:00 -3,4 C 78 % 1025,1 hPa 0,0 l/m 7,2 km/h NW -6,7 C -4,3 C 23,3 km/h
27.12.2010 10:00 -2,9 C 76 % 1025,2 hPa 0,0 l/m 7,2 km/h NW -6,5 C -3,8 C 22,5 km/h
27.12.2010 11:00 -2,2 C 69 % 1024,8 hPa 0,0 l/m 8,0 km/h W -7,1 C -3,9 C 24,1 km/h
27.12.2010 12:00 -1,4 C 65 % 1024,4 hPa 0,0 l/m 5,6 km/h W -7,2 C -1,4 C 22,5 km/h
27.12.2010 13:00 -1,2 C 64 % 1024,2 hPa 0,0 l/m 8,0 km/h W -7,2 C -2,9 C 20,9 km/h
27.12.2010 14:00 -0,8 C 64 % 1024,1 hPa 0,0 l/m 7,2 km/h W -6,8 C -1,6 C 25,0 km/h
27.12.2010 15:00 -1,5 C 70 % 1024,4 hPa 0,0 l/m 6,4 km/h W -6,2 C -1,5 C 20,1 km/h
27.12.2010 16:00 -1,8 C 70 % 1024,4 hPa 0,0 l/m 4,0 km/h W-SW -6,6 C -1,8 C 16,1 km/h
27.12.2010 17:00 -1,9 C 69 % 1024,7 hPa 0,0 l/m 3,2 km/h NW -6,8 C -1,9 C 16,1 km/h
27.12.2010 18:00 -2,6 C 72 % 1024,9 hPa 0,0 l/m 1,6 km/h N-NW -6,9 C -2,6 C 9,6 km/h
27.12.2010 19:00 -2,8 C 75 % 1025,3 hPa 0,0 l/m 0,8 km/h W-SW -6,7 C -2,8 C 6,4 km/h
27.12.2010 20:00 -3,1 C 75 % 1025,3 hPa 0,0 l/m 0,8 km/h N -6,9 C -3,1 C 4,8 km/h
27.12.2010 21:00 -3,5 C 76 % 1025,3 hPa 0,0 l/m 0,8 km/h W -7,1 C -3,5 C 6,5 km/h
27.12.2010 22:00 -3,8 C 76 % 1024,9 hPa 0,0 l/m 0,0 km/h N -7,3 C -3,8 C 4,8 km/h
27.12.2010 23:00 -4,6 C 79 % 1024,9 hPa 0,0 l/m 0,0 km/h N -7,6 C -4,6 C 2,4 km/h
28.12.2010 00:00 -5,6 C 81 % 1024,6 hPa 0,0 l/m 0,0 km/h N -8,4 C -5,6 C 1,6 km/h
28.12.2010 01:00 -6,3 C 82 % 1024,2 hPa 0,0 l/m 0,0 km/h N -8,9 C -6,3 C 2,4 km/h
28.12.2010 02:00 -6,4 C 83 % 1023,8 hPa 0,0 l/m 0,0 km/h N -8,8 C -6,4 C 2,4 km/h
28.12.2010 03:00 -5,8 C 85 % 1023,4 hPa 0,0 l/m 0,0 km/h N -7,9 C -5,8 C 4,0 km/h
28.12.2010 04:00 -4,9 C 84 % 1022,9 hPa 0,0 l/m 0,0 km/h N -7,1 C -4,9 C 2,4 km/h
28.12.2010 05:00 -4,7 C 84 % 1022,5 hPa 0,0 l/m 0,0 km/h N -7,0 C -4,7 C 0,0 km/h
28.12.2010 06:00 -4,7 C 83 % 1022,4 hPa 0,0 l/m 0,0 km/h N -7,1 C -4,7 C 1,6 km/h
28.12.2010 07:00 -4,6 C 83 % 1022,1 hPa 0,0 l/m 0,0 km/h N -7,0 C -4,6 C 2,4 km/h
28.12.2010 08:00 -4,3 C 83 % 1022,0 hPa 0,0 l/m 0,0 km/h N -6,7 C -4,3 C 2,4 km/h
28.12.2010 09:00 -3,8 C 83 % 1022,1 hPa 0,0 l/m 0,0 km/h N -6,2 C -3,8 C 3,2 km/h
28.12.2010 10:00 -2,9 C 82 % 1021,7 hPa 0,0 l/m 0,1 km/h N -5,6 C -2,9 C 1,6 km/h
28.12.2010 11:00 -2,3 C 80 % 1021,1 hPa 0,0 l/m 0,2 km/h N -5,2 C -2,3 C 4,0 km/h
28.12.2010 12:00 -1,5 C 78 % 1020,4 hPa 0,0 l/m 0,1 km/h N -4,8 C -1,5 C 2,0 km/h
28.12.2010 13:00 -0,8 C 75 % 1020,3 hPa 0,0 l/m 0,0 km/h N -4,6 C -0,8 C 0,4 km/h
28.12.2010 14:00 -0,3 C 75 % 1020,6 hPa 0,0 l/m 0,1 km/h N -4,3 C -0,3 C 2,0 km/h
28.12.2010 15:00 0,1 C 71 % 1021,3 hPa 0,0 l/m 2,6 km/h N-NW -4,6 C 0,1 C 7,6 km/h
28.12.2010 16:00 0,2 C 69 % 1022,0 hPa 0,0 l/m 6,7 km/h W-NW -4,7 C -0,0 C 16,5 km/h
28.12.2010 17:00 -0,8 C 63 % 1022,8 hPa 0,0 l/m 9,2 km/h N-NW -7,0 C -3,5 C 20,9 km/h
28.12.2010 18:00 -2,5 C 63 % 1024,4 hPa 0,0 l/m 5,8 km/h N-NW -8,5 C -2,6 C 14,9 km/h
28.12.2010 19:00 -3,5 C 69 % 1025,7 hPa 0,0 l/m 5,7 km/h N-NO -8,3 C -3,8 C 14,9 km/h
28.12.2010 20:00 -4,6 C 73 % 1026,7 hPa 0,0 l/m 4,3 km/h NW -8,7 C -4,8 C 12,1 km/h
28.12.2010 21:00 -5,4 C 76 % 1027,5 hPa 0,0 l/m 1,9 km/h NW -9,0 C -5,4 C 6,8 km/h
28.12.2010 22:00 -5,8 C 76 % 1027,4 hPa 0,0 l/m 4,7 km/h NW -9,3 C -5,8 C 12,9 km/h
28.12.2010 23:00 -6,1 C 76 % 1027,6 hPa 0,0 l/m 0,9 km/h W -9,6 C -6,1 C 4,8 km/h
29.12.2010 00:00 -6,6 C 78 % 1027,4 hPa 0,0 l/m 1,5 km/h N-NW -9,9 C -6,6 C 4,8 km/h
29.12.2010 01:00 -6,9 C 79 % 1027,5 hPa 0,0 l/m 2,1 km/h NW -10,0 C -6,9 C 5,6 km/h
29.12.2010 02:00 -7,0 C 79 % 1027,6 hPa 0,0 l/m 0,6 km/h N -10,0 C -7,0 C 2,4 km/h
29.12.2010 03:00 -7,7 C 79 % 1027,8 hPa 0,0 l/m 0,0 km/h N -10,7 C -7,7 C 0,4 km/h
29.12.2010 04:00 -8,5 C 80 % 1028,0 hPa 0,0 l/m 0,0 km/h N -11,3 C -8,5 C 1,2 km/h
29.12.2010 05:00 -9,0 C 81 % 1028,3 hPa 0,0 l/m 0,2 km/h N -11,6 C -9,0 C 2,0 km/h
29.12.2010 06:00 -9,2 C 82 % 1028,6 hPa 0,0 l/m 0,3 km/h N -11,7 C -9,2 C 2,8 km/h
29.12.2010 07:00 -9,7 C 83 % 1028,9 hPa 0,0 l/m 0,9 km/h S-SW -12,1 C -9,7 C 4,0 km/h
29.12.2010 08:00 -9,4 C 83 % 1029,1 hPa 0,0 l/m 1,4 km/h SW -11,7 C -9,4 C 6,4 km/h
29.12.2010 09:00 -8,4 C 84 % 1029,2 hPa 0,0 l/m 0,2 km/h N -10,7 C -8,4 C 2,4 km/h
29.12.2010 10:00 -7,0 C 83 % 1028,9 hPa 0,0 l/m 0,6 km/h W-SW -9,4 C -7,0 C 4,8 km/h
29.12.2010 11:00 -5,6 C 80 % 1028,5 hPa 0,0 l/m 1,3 km/h NO -8,6 C -5,6 C 6,4 km/h
29.12.2010 12:00 -4,9 C 76 % 1028,1 hPa 0,0 l/m 1,5 km/h N-NO -8,5 C -4,9 C 6,0 km/h
29.12.2010 13:00 -4,4 C 74 % 1027,4 hPa 0,0 l/m 1,8 km/h O-SO -8,4 C -4,4 C 6,8 km/h
29.12.2010 14:00 -4,8 C 75 % 1027,3 hPa 0,0 l/m 2,2 km/h O-SO -8,5 C -4,8 C 5,6 km/h
29.12.2010 15:00 -5,4 C 77 % 1027,6 hPa 0,0 l/m 1,3 km/h O-SO -8,8 C -5,4 C 4,0 km/h
29.12.2010 16:00 -6,1 C 78 % 1027,9 hPa 0,0 l/m 0,2 km/h N -9,3 C -6,1 C 2,8 km/h
29.12.2010 17:00 -6,9 C 79 % 1028,2 hPa 0,0 l/m 0,0 km/h N -9,9 C -6,9 C 0,0 km/h
29.12.2010 18:00 -7,6 C 80 % 1028,5 hPa 0,0 l/m 0,1 km/h N -10,5 C -7,6 C 1,2 km/h
29.12.2010 19:00 -8,5 C 81 % 1028,6 hPa 0,0 l/m 0,0 km/h N -11,1 C -8,5 C 1,6 km/h
29.12.2010 20:00 -9,1 C 82 % 1028,7 hPa 0,0 l/m 0,0 km/h N -11,6 C -9,1 C 1,2 km/h
29.12.2010 21:00 -9,6 C 83 % 1028,8 hPa 0,0 l/m 0,1 km/h N -12,0 C -9,6 C 2,8 km/h
29.12.2010 22:00 -9,7 C 83 % 1028,8 hPa 0,0 l/m 0,2 km/h N -12,0 C -9,7 C 2,8 km/h
29.12.2010 23:00 -10,4 C 83 % 1028,8 hPa 0,0 l/m 0,0 km/h N -12,6 C -10,4 C 0,8 km/h
30.12.2010 00:00 -10,6 C 84 % 1028,8 hPa 0,0 l/m 0,0 km/h N -12,7 C -10,6 C 0,4 km/h
30.12.2010 01:00 -10,8 C 84 % 1028,7 hPa 0,0 l/m 0,0 km/h N -12,9 C -10,8 C 1,2 km/h
30.12.2010 02:00 -10,8 C 84 % 1028,9 hPa 0,0 l/m 0,1 km/h N -13,0 C -10,8 C 2,4 km/h
30.12.2010 03:00 -10,9 C 84 % 1029,0 hPa 0,0 l/m 0,1 km/h N -13,1 C -10,9 C 2,4 km/h
30.12.2010 04:00 -11,1 C 84 % 1028,9 hPa 0,0 l/m 0,1 km/h N -13,2 C -11,1 C 2,8 km/h
30.12.2010 05:00 -11,3 C 83 % 1028,9 hPa 0,0 l/m 0,1 km/h N -13,6 C -11,3 C 2,4 km/h
30.12.2010 06:00 -11,6 C 83 % 1029,1 hPa 0,0 l/m 0,1 km/h N -13,9 C -11,6 C 2,0 km/h
30.12.2010 07:00 -11,7 C 83 % 1029,3 hPa 0,0 l/m 0,4 km/h N -13,9 C -11,7 C 3,2 km/h
30.12.2010 08:00 -11,5 C 83 % 1029,5 hPa 0,0 l/m 0,3 km/h N -13,8 C -11,5 C 2,8 km/h
30.12.2010 09:00 -10,6 C 83 % 1029,8 hPa 0,0 l/m 0,1 km/h N -12,9 C -10,6 C 0,8 km/h
30.12.2010 10:00 -8,9 C 84 % 1029,8 hPa 0,0 l/m 0,1 km/h N -11,1 C -8,9 C 2,4 km/h
30.12.2010 11:00 -7,5 C 83 % 1029,3 hPa 0,0 l/m 1,1 km/h O-SO -9,9 C -7,5 C 4,4 km/h
30.12.2010 12:00 -6,7 C 82 % 1028,6 hPa 0,0 l/m 1,1 km/h O-SO -9,2 C -6,7 C 4,4 km/h
30.12.2010 13:00 -6,1 C 81 % 1027,9 hPa 0,0 l/m 0,7 km/h O-SO -8,7 C -6,1 C 4,0 km/h
30.12.2010 14:00 -5,4 C 80 % 1027,6 hPa 0,0 l/m 0,5 km/h N -8,2 C -5,4 C 3,2 km/h
30.12.2010 15:00 -5,1 C 80 % 1027,3 hPa 0,0 l/m 0,3 km/h N -8,0 C -5,1 C 2,4 km/h
30.12.2010 16:00 -5,6 C 81 % 1027,2 hPa 0,0 l/m 0,2 km/h N -8,4 C -5,6 C 2,8 km/h
30.12.2010 17:00 -6,5 C 82 % 1027,2 hPa 0,0 l/m 0,2 km/h N -9,0 C -6,5 C 4,0 km/h
30.12.2010 18:00 -7,1 C 84 % 1027,5 hPa 0,0 l/m 0,3 km/h N -9,3 C -7,1 C 3,2 km/h
30.12.2010 19:00 -7,1 C 85 % 1027,8 hPa 0,0 l/m 0,3 km/h N -9,1 C -7,1 C 4,8 km/h
30.12.2010 20:00 -6,9 C 86 % 1027,6 hPa 0,0 l/m 0,5 km/h S-SO -8,9 C -6,9 C 4,0 km/h
30.12.2010 21:00 -6,9 C 86 % 1027,5 hPa 0,0 l/m 0,4 km/h N -8,9 C -6,9 C 3,6 km/h
30.12.2010 22:00 -7,1 C 86 % 1027,5 hPa 0,0 l/m 0,7 km/h SW -9,0 C -7,1 C 4,0 km/h
30.12.2010 23:00 -6,8 C 86 % 1027,1 hPa 0,0 l/m 0,4 km/h N -8,7 C -6,8 C 3,2 km/h
31.12.2010 00:00 -6,5 C 86 % 1026,8 hPa 0,0 l/m 0,7 km/h SW -8,4 C -6,5 C 4,8 km/h
31.12.2010 01:00 -6,5 C 86 % 1026,6 hPa 0,0 l/m 0,6 km/h S -8,4 C -6,5 C 4,0 km/h
31.12.2010 02:00 -6,4 C 86 % 1026,6 hPa 0,0 l/m 0,7 km/h N -8,3 C -6,4 C 4,8 km/h
31.12.2010 03:00 -6,3 C 86 % 1026,5 hPa 0,0 l/m 1,0 km/h S -8,3 C -6,3 C 6,0 km/h
31.12.2010 04:00 -6,2 C 86 % 1026,1 hPa 0,0 l/m 1,4 km/h S-SO -8,1 C -6,2 C 7,2 km/h
31.12.2010 05:00 -6,1 C 86 % 1026,1 hPa 0,0 l/m 1,8 km/h S -8,0 C -6,1 C 7,2 km/h
31.12.2010 06:00 -6,3 C 86 % 1026,1 hPa 0,0 l/m 0,8 km/h S-SW -8,2 C -6,3 C 5,2 km/h
31.12.2010 07:00 -6,5 C 86 % 1026,2 hPa 0,0 l/m 0,9 km/h N -8,4 C -6,5 C 4,8 km/h
31.12.2010 08:00 -6,3 C 86 % 1026,2 hPa 0,0 l/m 0,7 km/h S -8,2 C -6,3 C 4,8 km/h
31.12.2010 09:00 -5,8 C 86 % 1026,6 hPa 0,0 l/m 1,5 km/h S -7,7 C -5,8 C 8,0 km/h
31.12.2010 10:00 -5,2 C 86 % 1026,3 hPa 0,0 l/m 1,2 km/h S-SO -7,2 C -5,2 C 6,4 km/h
31.12.2010 11:00 -4,7 C 86 % 1026,1 hPa 0,0 l/m 0,4 km/h N -6,7 C -4,7 C 4,8 km/h
31.12.2010 12:00 -4,3 C 86 % 1025,5 hPa 0,0 l/m 0,5 km/h N -6,3 C -4,3 C 4,4 km/h
31.12.2010 13:00 -4,1 C 86 % 1024,8 hPa 0,0 l/m 1,0 km/h S -6,1 C -4,1 C 7,6 km/h
31.12.2010 14:00 -3,6 C 86 % 1024,5 hPa 0,0 l/m 1,0 km/h S -5,6 C -3,6 C 6,0 km/h
31.12.2010 15:00 -3,2 C 86 % 1024,3 hPa 0,0 l/m 0,4 km/h N -5,2 C -3,2 C 4,4 km/h
31.12.2010 16:00 -3,2 C 86 % 1024,3 hPa 0,0 l/m 0,2 km/h N -5,2 C -3,2 C 2,8 km/h
31.12.2010 17:00 -3,1 C 86 % 1024,2 hPa 0,0 l/m 0,2 km/h N -5,1 C -3,1 C 2,4 km/h
31.12.2010 18:00 -3,0 C 86 % 1024,2 hPa 0,0 l/m 0,8 km/h O-SO -5,0 C -3,0 C 4,8 km/h
31.12.2010 19:00 -2,6 C 86 % 1024,0 hPa 0,0 l/m 1,4 km/h SO -4,7 C -2,6 C 6,0 km/h
31.12.2010 20:00 -2,7 C 88 % 1024,0 hPa 0,0 l/m 0,8 km/h SO -4,5 C -2,7 C 4,0 km/h
31.12.2010 21:00 -1,9 C 86 % 1024,1 hPa 0,0 l/m 1,8 km/h O -3,9 C -1,9 C 8,8 km/h
31.12.2010 22:00 -2,0 C 86 % 1024,1 hPa 0,0 l/m 1,0 km/h O -4,0 C -2,0 C 6,4 km/h
31.12.2010 23:00 -0,3 C 86 % 1023,7 hPa 0,0 l/m 2,5 km/h W -2,4 C -0,3 C 8,4 km/h
01.01.2011 00:00 0,3 C 82 % 1023,4 hPa 0,0 l/m 2,3 km/h W-SW -2,4 C 0,3 C 10,5 km/h
01.01.2011 01:00 -1,6 C 82 % 1023,1 hPa 0,0 l/m 0,3 km/h N -4,2 C -1,6 C 3,6 km/h
01.01.2011 02:00 -2,1 C 84 % 1022,8 hPa 0,0 l/m 0,1 km/h N -4,5 C -2,1 C 2,4 km/h
01.01.2011 03:00 -1,4 C 85 % 1022,2 hPa 0,0 l/m 0,5 km/h W-SW -3,5 C -1,4 C 4,0 km/h
01.01.2011 04:00 -0,9 C 85 % 1021,9 hPa 0,0 l/m 0,1 km/h W-SW -3,0 C -0,9 C 2,0 km/h
01.01.2011 05:00 -1,1 C 85 % 1021,3 hPa 0,0 l/m 0,3 km/h N -3,3 C -1,1 C 2,4 km/h
01.01.2011 06:00 -1,9 C 85 % 1020,8 hPa 0,0 l/m 0,0 km/h N -4,1 C -1,9 C 1,2 km/h
01.01.2011 07:00 -3,0 C 85 % 1020,7 hPa 0,0 l/m 0,1 km/h N -5,1 C -3,0 C 1,2 km/h
01.01.2011 08:00 -2,3 C 86 % 1020,5 hPa 0,0 l/m 1,1 km/h SW -4,3 C -2,3 C 5,2 km/h
01.01.2011 09:00 -1,0 C 86 % 1020,3 hPa 0,0 l/m 1,2 km/h SO -3,1 C -1,0 C 4,8 km/h
01.01.2011 10:00 0,2 C 85 % 1019,6 hPa 0,0 l/m 3,6 km/h W -2,0 C 0,2 C 12,5 km/h
01.01.2011 11:00 2,4 C 79 % 1018,6 hPa 0,0 l/m 6,0 km/h S-SW -0,9 C 2,2 C 19,7 km/h
01.01.2011 12:00 3,0 C 75 % 1017,8 hPa 0,0 l/m 5,3 km/h W -1,0 C 3,0 C 20,1 km/h
01.01.2011 13:00 3,3 C 73 % 1017,0 hPa 0,0 l/m 7,8 km/h NW -1,0 C 1,7 C 23,7 km/h
01.01.2011 14:00 2,8 C 75 % 1017,2 hPa 0,0 l/m 9,0 km/h NW -1,3 C 0,5 C 24,5 km/h
01.01.2011 15:00 1,8 C 79 % 1017,5 hPa 0,0 l/m 9,2 km/h W -1,5 C -0,8 C 28,6 km/h
01.01.2011 16:00 1,3 C 80 % 1017,9 hPa 0,0 l/m 9,2 km/h W-SW -1,9 C -1,4 C 29,8 km/h
01.01.2011 17:00 1,3 C 78 % 1018,1 hPa 0,0 l/m 9,9 km/h W-NW -2,1 C -1,9 C 27,8 km/h
01.01.2011 18:00 1,3 C 78 % 1017,8 hPa 0,0 l/m 10,7 km/h SW -2,1 C -2,4 C 31,0 km/h
01.01.2011 19:00 1,4 C 77 % 1017,4 hPa 0,0 l/m 7,8 km/h W-SW -2,2 C -0,1 C 25,3 km/h
01.01.2011 20:00 2,0 C 73 % 1016,9 hPa 0,0 l/m 9,8 km/h W-NW -2,3 C -1,1 C 27,0 km/h
01.01.2011 21:00 2,4 C 70 % 1017,1 hPa 0,0 l/m 7,9 km/h W-NW -2,5 C 1,0 C 24,1 km/h
01.01.2011 22:00 2,5 C 72 % 1017,0 hPa 0,0 l/m 8,6 km/h W-NW -2,1 C 0,4 C 22,9 km/h
01.01.2011 23:00 2,6 C 72 % 1016,8 hPa 0,0 l/m 7,4 km/h W -2,0 C 1,5 C 24,1 km/h
02.01.2011 00:00 2,5 C 75 % 1016,9 hPa 0,0 l/m 8,3 km/h W -1,6 C 0,7 C 22,9 km/h
02.01.2011 01:00 2,0 C 80 % 1017,0 hPa 0,0 l/m 5,9 km/h W -1,1 C 1,5 C 19,3 km/h
02.01.2011 02:00 1,7 C 83 % 1017,1 hPa 0,0 l/m 5,1 km/h W-SW -0,9 C 1,7 C 19,7 km/h
02.01.2011 03:00 1,5 C 84 % 1017,1 hPa 0,5 l/m 1,9 km/h NW -0,9 C 1,5 C 7,7 km/h
02.01.2011 04:00 1,4 C 85 % 1017,0 hPa 0,0 l/m 2,1 km/h W-SW -0,9 C 1,4 C 6,8 km/h
02.01.2011 05:00 1,6 C 83 % 1017,0 hPa 0,0 l/m 3,5 km/h W-SW -0,9 C 1,6 C 12,5 km/h
02.01.2011 06:00 1,4 C 83 % 1017,2 hPa 0,0 l/m 1,8 km/h NW -1,1 C 1,4 C 6,4 km/h
02.01.2011 07:00 1,2 C 85 % 1017,5 hPa 0,0 l/m 0,4 km/h N -1,1 C 1,2 C 4,4 km/h
02.01.2011 08:00 1,2 C 85 % 1017,9 hPa 0,3 l/m 1,8 km/h NW -1,0 C 1,2 C 6,9 km/h
02.01.2011 09:00 1,3 C 83 % 1018,3 hPa 0,0 l/m 3,9 km/h W-NW -1,3 C 1,3 C 13,3 km/h
02.01.2011 10:00 1,3 C 82 % 1018,8 hPa 0,0 l/m 3,3 km/h NW -1,4 C 1,3 C 8,4 km/h
02.01.2011 11:00 1,1 C 84 % 1019,0 hPa 0,0 l/m 4,2 km/h SW -1,4 C 1,1 C 12,5 km/h
02.01.2011 12:00 1,9 C 77 % 1018,8 hPa 0,0 l/m 5,4 km/h SW -1,8 C 1,9 C 18,9 km/h
02.01.2011 13:00 1,9 C 74 % 1018,7 hPa 0,0 l/m 5,1 km/h W -2,2 C 1,9 C 14,5 km/h
02.01.2011 14:00 2,4 C 70 % 1018,5 hPa 0,0 l/m 7,6 km/h W -2,5 C 1,3 C 20,5 km/h
02.01.2011 15:00 2,2 C 68 % 1018,8 hPa 0,0 l/m 6,4 km/h W -3,0 C 1,9 C 18,5 km/h
02.01.2011 16:00 1,5 C 71 % 1019,1 hPa 0,0 l/m 6,1 km/h W-NW -3,2 C 1,2 C 20,9 km/h
02.01.2011 17:00 1,3 C 72 % 1019,4 hPa 0,0 l/m 3,7 km/h W-SW -3,2 C 1,3 C 13,7 km/h
02.01.2011 18:00 1,2 C 76 % 1019,9 hPa 0,0 l/m 5,6 km/h SW -2,7 C 1,0 C 18,5 km/h
02.01.2011 19:00 0,5 C 80 % 1020,0 hPa 0,3 l/m 5,1 km/h NW -2,6 C 0,5 C 14,5 km/h
02.01.2011 20:00 0,6 C 77 % 1020,0 hPa 0,0 l/m 6,5 km/h SW -3,0 C 0,3 C 18,9 km/h
02.01.2011 21:00 0,6 C 76 % 1020,2 hPa 0,0 l/m 4,8 km/h NW -3,2 C 0,6 C 14,5 km/h
Min-Datum _ 30.12.10 28.12.10 01.01.11 - 27.12.10 - 30.12.10 30.12.10 28.12.10
_ Min-Zeit 06:45 17:45 23:15 - 19:00 - 06:45 06:45 05:00
Minimum _ -11,7 C 58 % 1016,7 hPa - 0,0 km/h - -14,0 C -11,7 C 0,0 km/h
Max-Datum _ 01.01.11 31.12.10 30.12.10 02.01.11 01.01.11 - 02.01.11 01.01.11 01.01.11
_ Max-Zeit 13:15 20:45 10:15 03:00 18:45 - 03:00 13:00 15:45
Maximum _ 3,4 C 92 % 1029,9 hPa 0,5 l/m 14,1 km/h
SW
- -0,8 C 3,3 C 43,5 km/h
W
Durchschnitt _ -3,6 C 80 % 1024,0 hPa #1,0 l/m 2,5 km/h NW -6,7 C -3,9 C 9,2 km/h